Time;durP1;ratioP1;P1;durP2;ratioP2;P2;SDS_P1;SDS_P2;PMS_P1;PMS_P2;Temp;Humidity;BMP_temperature;BMP_pressure;BME280_temperature;BME280_humidity;BME280_pressure;Samples;Min_cycle;Max_cycle;Signal;HPM_P1;HPM_P2
2023/03/06 00:01:26;;;;;;;34.67;24.00;;;5.40;55.30;;;;;;4937892;29;20177;-87
2023/03/06 00:03:53;;;;;;;32.67;23.90;;;5.50;58.30;;;;;;4937879;28;20543;-89
2023/03/06 00:06:21;;;;;;;33.17;25.53;;;5.30;59.80;;;;;;4936729;28;20280;-88
2023/03/06 00:08:51;;;;;;;32.43;24.27;;;5.30;63.20;;;;;;4936292;29;20176;-88
2023/03/06 00:11:20;;;;;;;33.43;24.97;;;5.40;64.90;;;;;;4936274;29;20177;-87
2023/03/06 00:13:46;;;;;;;32.47;24.43;;;5.30;64.40;;;;;;4934934;28;20169;-87
2023/03/06 00:16:11;;;;;;;33.07;24.03;;;5.40;63.00;;;;;;4936068;29;20181;-90
2023/03/06 00:18:37;;;;;;;34.03;25.60;;;5.40;63.10;;;;;;4951378;29;20177;-87
2023/03/06 00:21:06;;;;;;;34.03;24.37;;;5.50;60.90;;;;;;4952352;29;20236;-87
2023/03/06 00:23:32;;;;;;;32.43;25.00;;;5.40;59.80;;;;;;4949454;29;20245;-86
2023/03/06 00:25:57;;;;;;;34.10;25.37;;;5.40;60.90;;;;;;4941419;29;20225;-88
2023/03/06 00:28:23;;;;;;;33.33;24.37;;;5.40;61.40;;;;;;4937850;28;20518;-88
2023/03/06 00:30:49;;;;;;;31.73;23.97;;;5.40;60.20;;;;;;4938820;29;20578;-87
2023/03/06 00:33:27;;;;;;;37.00;25.43;;;5.30;58.10;;;;;;4937817;28;20225;-87
2023/03/06 00:35:53;;;;;;;34.20;23.97;;;5.30;63.70;;;;;;4940669;29;20232;-89
2023/03/06 00:38:22;;;;;;;31.23;24.80;;;5.20;62.10;;;;;;4936333;28;20737;-88
2023/03/06 00:40:47;;;;;;;35.37;25.83;;;5.50;64.20;;;;;;4936291;29;20288;-87
2023/03/06 00:43:13;;;;;;;33.87;24.90;;;5.40;63.00;;;;;;4935590;29;20626;-87
2023/03/06 00:45:39;;;;;;;34.57;23.53;;;5.40;63.00;;;;;;4936015;28;20183;-89
2023/03/06 00:48:05;;;;;;;32.23;24.00;;;5.30;59.60;;;;;;4937278;29;20181;-88
2023/03/06 00:50:30;;;;;;;33.43;24.97;;;5.40;57.60;;;;;;4936306;29;20196;-87
2023/03/06 00:52:56;;;;;;;32.77;24.23;;;5.40;58.40;;;;;;4936892;28;20216;-88
2023/03/06 00:55:22;;;;;;;32.50;24.83;;;5.30;59.50;;;;;;4935928;28;20231;-87
2023/03/06 00:57:47;;;;;;;31.70;24.23;;;5.30;58.70;;;;;;4937253;29;20208;-88
2023/03/06 01:00:14;;;;;;;32.03;23.87;;;5.30;60.00;;;;;;4956397;29;20165;-87
2023/03/06 01:02:40;;;;;;;31.50;22.97;;;5.20;60.10;;;;;;4956958;29;20193;-88
2023/03/06 01:05:06;;;;;;;34.33;23.93;;;5.20;63.50;;;;;;4956046;29;20228;-85
2023/03/06 01:07:35;;;;;;;32.00;23.57;;;5.20;62.00;;;;;;4940534;29;20185;-89
2023/03/06 01:10:01;;;;;;;30.83;22.80;;;5.20;59.90;;;;;;4937074;29;20207;-91
2023/03/06 01:12:27;;;;;;;32.93;23.97;;;5.30;59.00;;;;;;4937078;28;20209;-88
2023/03/06 01:14:55;;;;;;;32.90;25.07;;;5.30;54.00;;;;;;4935908;29;20188;-89
2023/03/06 01:17:24;;;;;;;31.10;23.87;;;5.30;54.80;;;;;;4937102;29;20640;-89
2023/03/06 01:19:53;;;;;;;34.80;24.27;;;5.30;56.60;;;;;;4935862;28;20184;-88
2023/03/06 01:22:18;;;;;;;33.00;23.93;;;5.20;56.00;;;;;;4936679;29;20677;-87
2023/03/06 01:24:44;;;;;;;35.00;24.43;;;5.00;57.20;;;;;;4935783;28;20255;-87
2023/03/06 01:27:09;;;;;;;31.83;23.37;;;5.20;60.70;;;;;;4936715;28;20185;-86
2023/03/06 01:29:35;;;;;;;35.50;23.10;;;5.00;61.20;;;;;;4936896;29;20642;-87
2023/03/06 01:32:02;;;;;;;32.20;23.67;;;5.00;61.20;;;;;;4935307;29;20252;-86
2023/03/06 01:34:28;;;;;;;34.57;24.43;;;5.20;60.70;;;;;;4935065;28;20189;-87
2023/03/06 01:36:53;;;;;;;35.53;26.23;;;5.50;59.30;;;;;;4937760;29;20189;-87
2023/03/06 01:39:19;;;;;;;34.10;23.73;;;5.20;56.60;;;;;;4936387;28;20177;-86
2023/03/06 01:41:44;;;;;;;33.07;25.37;;;5.10;55.40;;;;;;4936069;29;20638;-86
2023/03/06 01:44:12;;;;;;;32.90;25.10;;;5.00;58.50;;;;;;4948867;28;20185;-87
2023/03/06 01:46:42;;;;;;;33.57;24.47;;;5.00;58.20;;;;;;4959114;28;20201;-90
2023/03/06 01:49:28;;;;;;;36.83;24.93;;;5.00;59.00;;;;;;4945335;29;20196;-88
2023/03/06 01:52:25;;;;;;;33.67;24.40;;;5.00;60.80;;;;;;4940031;29;20216;-87
2023/03/06 01:55:01;;;;;;;33.90;25.00;;;5.00;61.20;;;;;;4942348;29;20169;-87
2023/03/06 01:57:39;;;;;;;33.27;24.70;;;5.00;58.80;;;;;;4935662;28;20264;-89
2023/03/06 02:00:12;;;;;;;31.63;24.13;;;5.00;59.00;;;;;;4934902;28;20184;-88
2023/03/06 02:02:39;;;;;;;34.33;24.40;;;5.10;57.50;;;;;;4935478;28;20197;-88
2023/03/06 02:05:06;;;;;;;38.03;24.33;;;5.10;55.50;;;;;;4933152;28;20209;-90
2023/03/06 02:07:33;;;;;;;33.47;24.90;;;5.10;56.80;;;;;;4935106;28;20173;-87
2023/03/06 02:09:59;;;;;;;34.57;23.67;;;5.10;58.10;;;;;;4935137;29;20185;-87
2023/03/06 02:12:25;;;;;;;33.23;25.00;;;5.10;58.90;;;;;;4935699;29;20217;-87
2023/03/06 02:14:51;;;;;;;32.40;23.60;;;5.10;57.50;;;;;;4935074;28;20204;-89
2023/03/06 02:17:19;;;;;;;36.30;25.43;;;5.20;55.80;;;;;;4934961;29;20181;-87
2023/03/06 02:19:52;;;;;;;35.03;24.30;;;5.30;57.50;;;;;;4936071;29;20249;-89
2023/03/06 02:22:19;;;;;;;36.73;25.57;;;5.10;57.40;;;;;;4934706;28;20181;-89
2023/03/06 02:24:50;;;;;;;31.20;23.70;;;5.00;58.10;;;;;;4937588;28;20316;-88
2023/03/06 02:27:16;;;;;;;33.07;24.80;;;5.20;54.40;;;;;;4938618;28;20200;-89
2023/03/06 02:29:45;;;;;;;36.33;25.80;;;5.10;54.40;;;;;;4939920;29;20177;-89
2023/03/06 02:32:11;;;;;;;36.40;24.83;;;5.10;53.70;;;;;;4938683;28;20263;-89
2023/03/06 02:34:37;;;;;;;36.43;26.43;;;5.00;53.70;;;;;;4939779;29;20299;-88
2023/03/06 02:37:10;;;;;;;36.23;25.93;;;5.00;55.40;;;;;;4942482;29;20254;-86
2023/03/06 02:39:45;;;;;;;35.90;26.20;;;4.90;58.60;;;;;;4953716;28;20240;-85
2023/03/06 02:42:17;;;;;;;38.43;26.57;;;5.00;59.60;;;;;;4946707;28;20271;-89
2023/03/06 02:44:44;;;;;;;42.73;28.13;;;5.00;59.30;;;;;;4939634;29;20181;-88
2023/03/06 02:47:09;;;;;;;40.50;26.17;;;5.00;60.00;;;;;;4941645;28;20177;-88
2023/03/06 02:49:35;;;;;;;38.37;26.90;;;5.30;57.90;;;;;;4943223;29;20173;-88
2023/03/06 02:52:00;;;;;;;35.73;26.17;;;5.10;55.30;;;;;;4944838;28;20693;-87
2023/03/06 02:54:26;;;;;;;38.47;26.73;;;5.20;56.10;;;;;;4939656;28;20197;-87
2023/03/06 02:56:52;;;;;;;37.40;27.30;;;5.00;58.90;;;;;;4939078;28;20201;-88
2023/03/06 02:59:17;;;;;;;37.73;25.70;;;5.10;55.10;;;;;;4937290;29;20529;-88
2023/03/06 03:01:43;;;;;;;39.67;27.17;;;5.10;53.00;;;;;;4938736;29;20630;-89
2023/03/06 03:04:09;;;;;;;37.47;26.73;;;5.10;56.10;;;;;;4937397;28;20283;-88
2023/03/06 03:06:34;;;;;;;44.30;27.47;;;4.70;62.30;;;;;;4937359;28;20193;-87
2023/03/06 03:09:00;;;;;;;42.20;26.87;;;4.70;67.10;;;;;;4938075;28;20323;-88
2023/03/06 03:11:26;;;;;;;43.20;28.27;;;4.80;66.30;;;;;;4943623;29;20177;-88
2023/03/06 03:13:51;;;;;;;43.67;28.23;;;4.70;68.00;;;;;;4941236;29;20177;-89
2023/03/06 03:16:17;;;;;;;39.60;28.00;;;4.70;67.90;;;;;;4940952;28;20181;-88
2023/03/06 03:18:50;;;;;;;40.53;27.63;;;4.70;71.20;;;;;;4943583;28;20177;-88
2023/03/06 03:21:17;;;;;;;39.70;27.37;;;4.70;69.50;;;;;;4942734;28;20185;-88
2023/03/06 03:23:42;;;;;;;38.80;26.87;;;4.70;73.20;;;;;;4938282;28;20550;-89
2023/03/06 03:26:18;;;;;;;41.77;28.77;;;4.70;75.70;;;;;;4938362;29;20193;-88
2023/03/06 03:28:44;;;;;;;39.00;27.97;;;4.70;78.80;;;;;;4940010;29;20173;-89
2023/03/06 03:31:11;;;;;;;40.50;29.40;;;4.60;77.80;;;;;;4940851;29;20292;-88
2023/03/06 03:33:36;;;;;;;41.43;28.30;;;4.70;76.70;;;;;;4937827;29;20275;-90
2023/03/06 03:36:04;;;;;;;38.73;28.17;;;4.80;76.20;;;;;;4935999;28;20713;-89
2023/03/06 03:38:30;;;;;;;40.27;29.03;;;4.80;72.20;;;;;;4937935;29;20165;-89
2023/03/06 03:40:56;;;;;;;43.87;28.53;;;4.80;70.00;;;;;;4936904;29;20267;-89
2023/03/06 03:43:22;;;;;;;43.00;30.27;;;4.60;76.40;;;;;;4936680;28;20635;-88
2023/03/06 03:45:47;;;;;;;44.97;29.30;;;4.50;80.10;;;;;;4935688;28;20208;-88
2023/03/06 03:48:13;;;;;;;46.30;29.80;;;4.60;81.30;;;;;;4937648;29;20177;-89
2023/03/06 03:50:39;;;;;;;40.97;27.53;;;4.70;79.80;;;;;;4936978;29;20181;-88
2023/03/06 03:53:04;;;;;;;38.97;27.27;;;4.80;77.50;;;;;;4936777;28;20228;-87
2023/03/06 03:55:30;;;;;;;39.80;28.20;;;4.70;74.30;;;;;;4922422;29;20181;-87
2023/03/06 03:57:56;;;;;;;40.70;28.27;;;4.50;78.30;;;;;;4939012;29;20173;-88
2023/03/06 04:00:22;;;;;;;43.67;28.57;;;4.70;81.60;;;;;;4939241;29;20180;-88
2023/03/06 04:02:47;;;;;;;41.00;28.83;;;4.70;80.20;;;;;;4938916;29;20205;-91
2023/03/06 04:05:14;;;;;;;41.83;28.30;;;4.60;78.30;;;;;;4935138;28;20945;-90
2023/03/06 04:07:41;;;;;;;42.70;27.73;;;4.60;77.00;;;;;;4935450;28;20181;-89
2023/03/06 04:10:09;;;;;;;42.63;30.40;;;4.60;79.70;;;;;;4935832;29;20188;-89
2023/03/06 04:12:36;;;;;;;41.07;29.43;;;4.70;77.80;;;;;;4935806;28;20208;-90
2023/03/06 04:15:05;;;;;;;39.90;28.23;;;4.80;77.50;;;;;;4936123;29;20173;-90
2023/03/06 04:17:33;;;;;;;44.83;28.90;;;4.70;76.20;;;;;;4936167;28;20192;-88
2023/03/06 04:20:00;;;;;;;45.37;28.37;;;4.70;76.80;;;;;;4935647;29;20169;-89
2023/03/06 04:22:26;;;;;;;40.43;27.77;;;4.60;78.60;;;;;;4935318;28;20591;-89
2023/03/06 04:24:51;;;;;;;41.97;28.30;;;4.60;79.20;;;;;;4948449;28;20181;-89
2023/03/06 04:27:20;;;;;;;41.13;28.63;;;4.60;78.10;;;;;;4936087;28;20177;-88
2023/03/06 04:29:47;;;;;;;42.53;28.73;;;4.60;80.50;;;;;;4935893;29;20188;-87
2023/03/06 04:32:13;;;;;;;40.67;26.70;;;4.60;81.20;;;;;;4936248;29;20607;-88
2023/03/06 04:34:38;;;;;;;44.47;28.57;;;4.90;77.70;;;;;;4935976;28;20212;-88
2023/03/06 04:37:04;;;;;;;39.83;27.60;;;4.80;71.90;;;;;;4952168;28;20177;-88
2023/03/06 04:39:30;;;;;;;44.33;28.60;;;4.70;70.60;;;;;;4947512;29;20169;-89
2023/03/06 04:41:55;;;;;;;37.13;26.20;;;4.60;71.30;;;;;;4936802;28;20181;-88
2023/03/06 04:44:21;;;;;;;42.87;28.37;;;4.60;73.00;;;;;;4934689;28;20665;-88
2023/03/06 04:46:47;;;;;;;41.83;26.87;;;4.70;72.10;;;;;;4935530;28;20633;-89
2023/03/06 04:49:12;;;;;;;39.87;27.00;;;4.50;74.50;;;;;;4935470;29;20232;-89
2023/03/06 04:51:38;;;;;;;43.40;28.07;;;4.50;77.60;;;;;;4935896;28;20629;-89
2023/03/06 04:54:04;;;;;;;40.97;27.63;;;4.60;77.20;;;;;;4935532;29;20673;-88
2023/03/06 04:56:30;;;;;;;40.70;26.60;;;4.70;75.00;;;;;;4935526;28;20190;-90
2023/03/06 04:58:56;;;;;;;41.20;26.90;;;4.40;76.10;;;;;;4935248;29;20169;-89
2023/03/06 05:01:21;;;;;;;44.83;27.83;;;4.50;80.00;;;;;;4943047;29;20196;-87
2023/03/06 05:03:48;;;;;;;41.93;26.37;;;4.60;80.00;;;;;;4946294;29;20208;-88
2023/03/06 05:06:14;;;;;;;35.83;24.83;;;4.50;78.60;;;;;;4941364;29;20204;-88
2023/03/06 05:08:40;;;;;;;38.77;28.00;;;4.40;77.00;;;;;;4941391;29;20196;-88
2023/03/06 05:11:05;;;;;;;36.70;24.80;;;4.50;78.10;;;;;;4940387;29;20213;-89
2023/03/06 05:13:33;;;;;;;38.90;25.33;;;4.40;76.90;;;;;;4938198;29;20256;-89
2023/03/06 05:16:04;;;;;;;39.00;25.97;;;4.50;81.40;;;;;;4944862;29;20177;-87
2023/03/06 05:18:31;;;;;;;36.00;24.97;;;4.30;84.00;;;;;;4940400;29;20176;-90
2023/03/06 05:20:58;;;;;;;37.10;26.13;;;4.40;84.40;;;;;;4934718;29;20268;-87
2023/03/06 05:23:28;;;;;;;36.90;25.57;;;4.40;84.90;;;;;;4935432;29;20185;-87
2023/03/06 05:25:55;;;;;;;42.13;26.27;;;4.30;88.00;;;;;;4936290;29;20169;-87
2023/03/06 05:28:24;;;;;;;35.90;25.07;;;4.40;87.80;;;;;;4957191;29;20161;-87
2023/03/06 05:30:50;;;;;;;37.70;26.40;;;4.50;83.60;;;;;;4946974;28;20197;-87
2023/03/06 05:33:16;;;;;;;43.10;27.07;;;4.60;79.60;;;;;;4950915;29;20220;-89
2023/03/06 05:35:46;;;;;;;38.13;25.50;;;4.60;78.30;;;;;;4934899;29;20181;-87
2023/03/06 05:38:15;;;;;;;37.50;26.40;;;4.50;80.80;;;;;;4934140;29;20170;-87
2023/03/06 05:40:43;;;;;;;34.97;26.50;;;4.70;79.40;;;;;;4921811;29;20174;-87
2023/03/06 05:43:10;;;;;;;37.03;27.27;;;4.60;75.60;;;;;;4917318;29;20673;-88
2023/03/06 05:45:39;;;;;;;39.50;27.00;;;4.60;73.90;;;;;;4917462;29;20200;-88
2023/03/06 05:48:06;;;;;;;36.57;25.73;;;4.70;72.30;;;;;;4917396;29;20638;-86
2023/03/06 05:50:42;;;;;;;42.10;26.97;;;4.50;75.00;;;;;;4916828;29;20206;-88
2023/03/06 05:53:07;;;;;;;41.07;27.30;;;4.50;76.00;;;;;;4916238;29;20213;-88
2023/03/06 05:55:33;;;;;;;36.57;26.07;;;4.60;74.80;;;;;;4916105;29;20162;-90
2023/03/06 05:57:58;;;;;;;42.30;26.80;;;4.60;74.70;;;;;;4918378;29;20178;-88
2023/03/06 06:00:24;;;;;;;38.07;26.67;;;4.60;73.10;;;;;;4921048;29;20511;-88
2023/03/06 06:02:50;;;;;;;37.50;26.57;;;4.60;70.90;;;;;;4920981;29;20725;-88
2023/03/06 06:05:17;;;;;;;35.97;24.83;;;4.60;70.10;;;;;;4919566;29;20206;-87
2023/03/06 06:07:42;;;;;;;37.73;25.97;;;4.60;67.30;;;;;;4920934;29;20166;-88
2023/03/06 06:10:10;;;;;;;40.83;27.70;;;4.50;67.50;;;;;;4920655;29;20181;-90
2023/03/06 06:12:36;;;;;;;40.13;27.50;;;4.40;72.10;;;;;;4920727;29;20206;-87
2023/03/06 06:15:03;;;;;;;37.33;26.37;;;4.50;75.20;;;;;;4921261;29;20276;-90
2023/03/06 06:17:29;;;;;;;39.83;26.90;;;4.50;74.00;;;;;;4921009;29;20192;-92
2023/03/06 06:19:55;;;;;;;37.03;26.43;;;4.60;74.20;;;;;;4922993;29;20174;-89
2023/03/06 06:22:23;;;;;;;39.10;25.07;;;4.50;75.60;;;;;;4922414;29;20622;-90
2023/03/06 06:24:50;;;;;;;41.83;26.70;;;4.50;77.80;;;;;;4922515;29;20177;-89
2023/03/06 06:27:15;;;;;;;40.97;26.93;;;4.40;77.70;;;;;;4932194;29;20201;-87
2023/03/06 06:29:41;;;;;;;40.57;26.80;;;4.60;79.60;;;;;;4923715;29;20178;-90
2023/03/06 06:32:07;;;;;;;41.57;26.97;;;4.60;76.10;;;;;;4917930;29;20202;-89
2023/03/06 06:34:35;;;;;;;39.30;27.27;;;4.60;74.60;;;;;;4919004;29;20196;-89
2023/03/06 06:37:01;;;;;;;41.37;26.87;;;4.60;73.40;;;;;;4927682;29;20181;-89
2023/03/06 06:39:27;;;;;;;37.43;26.27;;;4.70;73.40;;;;;;4939999;29;20196;-89
2023/03/06 06:41:53;;;;;;;39.43;26.50;;;4.70;68.60;;;;;;4940831;28;20181;-87
2023/03/06 06:44:19;;;;;;;42.03;26.57;;;4.60;70.70;;;;;;4942627;29;20252;-88
2023/03/06 06:46:45;;;;;;;41.40;27.13;;;4.60;75.10;;;;;;4934676;29;20646;-89
2023/03/06 06:49:20;;;;;;;43.47;27.70;;;4.70;73.90;;;;;;4930848;29;20184;-90
2023/03/06 06:51:46;;;;;;;43.63;26.83;;;4.90;68.90;;;;;;4927101;29;20199;-90
2023/03/06 06:54:12;;;;;;;44.10;27.97;;;4.80;65.50;;;;;;4937597;29;20180;-88
2023/03/06 06:56:39;;;;;;;42.87;27.43;;;4.80;64.40;;;;;;4943367;29;20253;-91
2023/03/06 06:59:05;;;;;;;45.17;27.57;;;4.70;69.50;;;;;;4939585;28;20176;-91
2023/03/06 07:01:31;;;;;;;37.67;26.10;;;4.70;74.70;;;;;;4937867;29;20631;-89
2023/03/06 07:03:57;;;;;;;41.60;27.60;;;4.90;75.30;;;;;;4939287;29;20235;-88
2023/03/06 07:06:22;;;;;;;37.87;28.27;;;4.90;75.80;;;;;;4938879;28;20618;-91
2023/03/06 07:08:48;;;;;;;42.87;27.00;;;4.70;71.80;;;;;;4937609;28;20180;-90
2023/03/06 07:11:16;;;;;;;44.50;30.50;;;4.80;72.20;;;;;;4939404;29;20276;-89
2023/03/06 07:13:43;;;;;;;38.03;26.93;;;4.70;73.80;;;;;;4936528;28;20220;-89
2023/03/06 07:16:10;;;;;;;40.23;27.03;;;5.00;72.90;;;;;;4921874;29;20186;-88
2023/03/06 07:18:35;;;;;;;39.20;27.60;;;5.00;71.80;;;;;;4918954;29;20178;-92
2023/03/06 07:21:01;;;;;;;39.77;27.10;;;5.10;71.10;;;;;;4919760;29;20333;-91
2023/03/06 07:23:27;;;;;;;38.43;27.57;;;5.10;69.70;;;;;;4920779;29;20182;-89
2023/03/06 07:25:57;;;;;;;42.23;28.67;;;5.20;60.00;;;;;;4921654;29;20178;-88
2023/03/06 07:28:26;;;;;;;42.00;27.93;;;5.30;56.70;;;;;;4926235;29;20178;-87
2023/03/06 07:30:53;;;;;;;43.73;28.47;;;5.40;53.10;;;;;;4923121;29;20702;-89
2023/03/06 07:33:19;;;;;;;38.73;28.37;;;5.30;54.60;;;;;;4921522;29;20225;-90
2023/03/06 07:35:44;;;;;;;42.37;28.23;;;5.50;54.70;;;;;;4934071;29;20188;-89
2023/03/06 07:38:10;;;;;;;40.47;27.33;;;5.30;55.90;;;;;;4936966;29;20181;-87
2023/03/06 07:40:37;;;;;;;42.77;28.90;;;5.40;57.80;;;;;;4929760;29;20186;-90
2023/03/06 07:43:05;;;;;;;39.17;28.27;;;5.40;60.00;;;;;;4925032;29;20220;-90
2023/03/06 07:45:31;;;;;;;42.93;27.83;;;5.30;58.10;;;;;;4921586;29;20218;-88
2023/03/06 07:48:14;;;;;;;43.23;28.20;;;5.20;56.50;;;;;;4920281;29;20185;-92
2023/03/06 07:50:40;;;;;;;37.83;26.93;;;5.30;58.90;;;;;;4927701;29;20229;-89
2023/03/06 07:53:06;;;;;;;40.37;28.30;;;5.40;61.50;;;;;;4924164;29;20571;-89
2023/03/06 07:55:32;;;;;;;40.77;26.57;;;5.30;56.00;;;;;;4918923;29;20173;-88
2023/03/06 07:57:58;;;;;;;40.40;27.13;;;5.10;56.80;;;;;;4918715;29;20217;-87
2023/03/06 08:00:36;;;;;;;35.17;26.37;;;5.10;59.70;;;;;;4921340;29;20208;-88
2023/03/06 08:03:02;;;;;;;39.47;27.00;;;5.20;59.60;;;;;;4925155;29;20197;-90
2023/03/06 08:05:28;;;;;;;40.80;27.93;;;5.30;57.80;;;;;;4920180;29;20197;-88
2023/03/06 08:07:53;;;;;;;40.57;28.17;;;5.10;57.50;;;;;;4918769;29;20200;-89
2023/03/06 08:10:19;;;;;;;38.70;27.13;;;5.20;59.90;;;;;;4920040;29;20178;-90
2023/03/06 08:12:46;;;;;;;38.20;27.10;;;5.40;55.60;;;;;;4919177;29;20220;-87
2023/03/06 08:15:12;;;;;;;44.13;28.90;;;5.50;50.30;;;;;;4926674;29;20174;-87
2023/03/06 08:17:38;;;;;;;35.60;26.77;;;5.60;46.70;;;;;;4921550;29;20534;-88
2023/03/06 08:20:04;;;;;;;37.83;28.10;;;5.60;44.10;;;;;;4927610;29;20188;-89
2023/03/06 08:22:30;;;;;;;40.03;28.10;;;5.70;42.30;;;;;;4932673;29;20215;-88
2023/03/06 08:24:57;;;;;;;41.03;27.73;;;5.70;41.80;;;;;;4933354;29;20185;-87
2023/03/06 08:27:25;;;;;;;40.50;28.00;;;5.70;44.10;;;;;;4927156;29;20618;-89
2023/03/06 08:30:01;;;;;;;44.83;28.37;;;6.00;40.90;;;;;;4923622;29;20656;-87
2023/03/06 08:32:28;;;;;;;42.93;29.27;;;6.20;30.10;;;;;;4920376;29;20561;-89
2023/03/06 08:35:04;;;;;;;38.83;27.73;;;6.10;23.70;;;;;;4922732;29;20233;-88
2023/03/06 08:37:29;;;;;;;38.50;27.47;;;6.10;21.40;;;;;;4920234;29;20264;-90
2023/03/06 08:39:55;;;;;;;36.87;27.07;;;6.20;18.90;;;;;;4923334;29;20189;-89
2023/03/06 08:42:22;;;;;;;36.90;26.73;;;6.10;19.20;;;;;;4923011;29;20603;-87
2023/03/06 08:44:49;;;;;;;39.77;27.73;;;6.00;21.40;;;;;;4923457;29;20173;-88
2023/03/06 08:47:15;;;;;;;36.17;25.23;;;5.80;30.30;;;;;;4923164;29;20186;-86
2023/03/06 08:49:40;;;;;;;39.00;25.73;;;5.90;34.20;;;;;;4919748;29;20185;-88
2023/03/06 08:52:06;;;;;;;37.10;25.13;;;5.80;36.30;;;;;;4919029;29;20216;-89
2023/03/06 08:54:34;;;;;;;41.57;26.90;;;5.90;34.90;;;;;;4918178;29;20546;-88
2023/03/06 08:56:59;;;;;;;37.93;27.10;;;6.10;34.20;;;;;;4916820;29;20184;-89
2023/03/06 08:59:25;;;;;;;35.13;24.47;;;6.10;29.10;;;;;;4917410;29;20187;-89
2023/03/06 09:01:51;;;;;;;37.60;26.23;;;6.20;23.10;;;;;;4918182;29;20210;-88
2023/03/06 09:04:17;;;;;;;35.30;25.87;;;6.10;15.70;;;;;;4918314;29;20296;-92
2023/03/06 09:06:44;;;;;;;40.27;26.00;;;5.90;22.20;;;;;;4916534;29;20197;-88
2023/03/06 09:09:10;;;;;;;42.07;27.57;;;6.00;26.60;;;;;;4921081;29;20178;-90
2023/03/06 09:11:40;;;;;;;39.20;26.63;;;6.10;29.90;;;;;;4927740;29;20185;-90
2023/03/06 09:14:07;;;;;;;36.93;25.00;;;5.90;29.80;;;;;;4919356;29;20189;-91
2023/03/06 09:16:34;;;;;;;37.57;25.13;;;5.90;31.40;;;;;;4919286;29;20178;-88
2023/03/06 09:19:16;;;;;;;39.70;26.07;;;6.00;35.40;;;;;;4927416;29;20177;-91
2023/03/06 09:21:42;;;;;;;35.77;24.90;;;5.90;31.20;;;;;;4936100;29;20158;-88
2023/03/06 09:24:08;;;;;;;36.63;24.63;;;6.10;27.00;;;;;;4929600;29;20198;-89
2023/03/06 09:26:33;;;;;;;37.23;25.43;;;6.20;24.50;;;;;;4925617;29;20182;-88
2023/03/06 09:29:01;;;;;;;41.10;26.67;;;6.30;24.50;;;;;;4938349;29;20233;-87
2023/03/06 09:31:30;;;;;;;36.87;25.87;;;6.30;23.30;;;;;;4937415;29;20189;-89
2023/03/06 09:33:56;;;;;;;33.80;24.90;;;6.20;17.80;;;;;;4940647;29;20213;-90
2023/03/06 09:36:28;;;;;;;33.90;24.53;;;6.20;16.00;;;;;;4938561;29;20753;-87
2023/03/06 09:38:55;;;;;;;32.90;24.17;;;6.20;14.90;;;;;;4915588;29;20198;-88
2023/03/06 09:41:36;;;;;;;36.10;25.83;;;6.00;13.40;;;;;;4906990;29;20179;-87
2023/03/06 09:44:39;;;;;;;34.97;24.70;;;5.90;20.90;;;;;;4903048;29;20197;-90
2023/03/06 09:47:39;;;;;;;36.50;25.33;;;6.10;24.40;;;;;;4903305;29;20631;-89
2023/03/06 09:50:17;;;;;;;35.40;25.63;;;6.20;22.20;;;;;;4901391;29;20667;-88
2023/03/06 09:53:04;;;;;;;34.10;25.07;;;6.30;16.00;;;;;;4901707;29;20249;-89
2023/03/06 09:55:35;;;;;;;40.33;28.17;;;6.20;20.70;;;;;;4901970;29;20395;-88
2023/03/06 09:58:19;;;;;;;39.97;26.97;;;6.30;18.00;;;;;;4904362;29;20194;-87
2023/03/06 10:00:56;;;;;;;41.57;26.03;;;6.30;18.60;;;;;;4903836;29;20178;-88
2023/03/06 10:03:37;;;;;;;34.17;23.07;;;6.60;14.30;;;;;;4904988;29;20198;-88
2023/03/06 10:06:08;;;;;;;32.93;23.47;;;6.70;14.20;;;;;;4905413;29;20228;-88
2023/03/06 10:08:52;;;;;;;33.90;22.57;;;6.80;6.20;;;;;;4901206;29;20170;-88
2023/03/06 10:11:26;;;;;;;34.50;24.33;;;6.90;1.00;;;;;;4902264;29;20178;-87
2023/03/06 10:14:21;;;;;;;33.30;23.43;;;6.90;1.00;;;;;;4902283;29;20213;-89
2023/03/06 10:16:47;;;;;;;33.37;23.40;;;6.90;1.00;;;;;;4908199;29;20627;-87
2023/03/06 10:19:17;;;;;;;33.03;23.13;;;6.90;1.00;;;;;;4912529;29;20181;-89
2023/03/06 10:22:02;;;;;;;32.23;22.53;;;7.00;1.00;;;;;;4905919;29;20751;-88
2023/03/06 10:24:54;;;;;;;31.67;22.63;;;7.00;1.00;;;;;;4900950;29;20224;-87
2023/03/06 10:27:32;;;;;;;32.20;23.50;;;7.20;1.00;;;;;;4902855;29;20182;-87
2023/03/06 10:30:31;;;;;;;31.60;22.17;;;7.30;1.00;;;;;;4901735;29;20201;-89
2023/03/06 10:33:20;;;;;;;31.23;23.10;;;7.30;1.00;;;;;;4902638;29;20281;-89
2023/03/06 10:35:51;;;;;;;34.43;23.33;;;7.50;1.00;;;;;;4903623;29;20171;-88
2023/03/06 10:38:37;;;;;;;31.37;22.83;;;7.60;1.00;;;;;;4907966;29;20181;-89
2023/03/06 10:41:10;;;;;;;31.83;22.70;;;7.50;1.00;;;;;;4902967;29;20197;-87
2023/03/06 10:43:41;;;;;;;35.10;23.63;;;7.70;1.00;;;;;;4904342;29;20190;-90
2023/03/06 10:46:09;;;;;;;30.40;22.57;;;7.90;1.00;;;;;;4921448;29;20207;-87
2023/03/06 10:48:37;;;;;;;30.33;21.47;;;8.00;1.00;;;;;;4921335;29;20185;-88
2023/03/06 10:51:23;;;;;;;29.67;20.93;;;8.20;1.00;;;;;;4916087;29;20241;-85
2023/03/06 10:54:02;;;;;;;29.43;21.07;;;8.20;1.00;;;;;;4917147;29;20209;-89
2023/03/06 10:56:37;;;;;;;29.67;21.77;;;8.10;1.00;;;;;;4917266;29;20198;-87
2023/03/06 10:59:18;;;;;;;25.23;19.30;;;8.10;1.00;;;;;;4918998;29;20177;-87
2023/03/06 11:01:47;;;;;;;24.60;16.10;;;8.00;1.00;;;;;;4910727;29;20170;-87
2023/03/06 11:04:19;;;;;;;22.33;16.00;;;7.40;1.00;;;;;;4903773;29;20635;-86
2023/03/06 11:06:45;;;;;;;24.33;16.27;;;7.40;1.00;;;;;;4907117;29;20191;-87
2023/03/06 11:09:23;;;;;;;22.77;16.70;;;7.30;1.00;;;;;;4905099;29;20177;-91
2023/03/06 11:11:50;;;;;;;19.07;14.80;;;7.30;1.00;;;;;;4903021;29;20181;-88
2023/03/06 11:14:19;;;;;;;22.37;16.40;;;7.50;1.00;;;;;;4900712;29;20202;-88
2023/03/06 11:16:52;;;;;;;33.23;24.53;;;7.40;1.00;;;;;;4901886;29;20202;-90
2023/03/06 11:19:27;;;;;;;26.17;18.00;;;7.40;1.00;;;;;;4902120;29;20643;-87
2023/03/06 11:22:16;;;;;;;86.60;52.63;;;7.30;1.00;;;;;;4903109;29;20263;-91
2023/03/06 11:24:47;;;;;;;33.80;22.90;;;7.30;1.00;;;;;;4902979;29;20174;-90
2023/03/06 11:27:33;;;;;;;27.07;20.33;;;7.40;1.00;;;;;;4906212;29;20182;-88
2023/03/06 11:30:04;;;;;;;26.27;18.67;;;7.40;1.00;;;;;;4904708;29;20185;-89
2023/03/06 11:32:40;;;;;;;25.40;19.23;;;7.60;1.00;;;;;;4902277;29;20206;-89
2023/03/06 11:35:15;;;;;;;22.93;17.93;;;7.70;1.00;;;;;;4904870;29;20193;-87
2023/03/06 11:38:03;;;;;;;22.57;17.20;;;7.60;1.00;;;;;;4903375;29;20213;-89
2023/03/06 11:41:13;;;;;;;22.67;17.67;;;7.40;1.00;;;;;;4905799;29;20229;-87
2023/03/06 11:43:59;;;;;;;24.23;17.03;;;7.30;1.00;;;;;;4885456;29;20675;-88
2023/03/06 11:46:38;;;;;;;22.30;16.33;;;7.40;1.00;;;;;;4904391;29;20257;-86
2023/03/06 11:49:23;;;;;;;24.93;15.40;;;7.30;1.00;;;;;;4900512;29;20706;-86
2023/03/06 11:52:04;;;;;;;23.33;17.17;;;7.30;1.00;;;;;;4902519;29;20178;-87
2023/03/06 11:54:32;;;;;;;24.40;17.03;;;7.30;1.00;;;;;;4901516;29;20193;-90
2023/03/06 11:57:03;;;;;;;23.23;17.30;;;7.50;1.00;;;;;;4899755;29;20185;-88
2023/03/06 11:59:57;;;;;;;25.07;17.63;;;7.60;1.00;;;;;;4900680;29;20186;-88
2023/03/06 12:02:50;;;;;;;22.17;17.03;;;7.70;1.00;;;;;;4899195;29;20269;-87
2023/03/06 12:05:40;;;;;;;24.30;17.47;;;7.90;1.00;;;;;;4913926;29;20229;-89
2023/03/06 12:08:43;;;;;;;25.00;18.83;;;7.70;1.00;;;;;;4901612;29;20253;-88
2023/03/06 12:11:44;;;;;;;26.77;18.30;;;7.80;1.00;;;;;;4901336;29;20218;-89
2023/03/06 12:14:31;;;;;;;25.57;17.77;;;7.80;1.00;;;;;;4899317;29;20344;-88
2023/03/06 12:17:22;;;;;;;24.93;17.97;;;7.60;1.00;;;;;;4898778;29;20326;-87
2023/03/06 12:19:49;;;;;;;30.80;17.67;;;7.70;1.00;;;;;;4898354;29;20170;-87
2023/03/06 12:22:39;;;;;;;37.87;21.50;;;7.80;1.00;;;;;;4899795;29;20174;-85
2023/03/06 12:25:04;;;;;;;30.47;19.23;;;7.80;1.00;;;;;;4897769;29;20193;-89
2023/03/06 12:27:45;;;;;;;26.40;17.37;;;7.90;1.00;;;;;;4900386;29;20170;-88
2023/03/06 12:30:24;;;;;;;21.20;16.23;;;7.90;1.00;;;;;;4899348;29;20551;-87
2023/03/06 12:33:11;;;;;;;23.60;15.87;;;7.90;1.00;;;;;;4898854;29;20209;-86
2023/03/06 12:36:03;;;;;;;24.10;17.33;;;7.80;1.00;;;;;;4899278;29;20186;-87
2023/03/06 12:39:04;;;;;;;23.10;17.87;;;7.80;1.00;;;;;;4903207;29;20178;-86
2023/03/06 12:41:50;;;;;;;24.70;18.80;;;7.80;1.00;;;;;;4910115;29;20181;-86
2023/03/06 12:44:42;;;;;;;25.67;18.50;;;7.70;1.00;;;;;;4900816;29;20616;-85
2023/03/06 12:47:14;;;;;;;23.37;18.53;;;7.70;1.00;;;;;;4907646;29;20190;-86
2023/03/06 12:49:50;;;;;;;25.67;18.63;;;7.60;1.00;;;;;;4913629;29;20201;-87
2023/03/06 12:52:29;;;;;;;24.93;17.97;;;7.40;1.00;;;;;;4913107;29;20202;-85
2023/03/06 12:54:59;;;;;;;25.13;17.67;;;7.30;1.00;;;;;;4912781;29;20237;-86